createdAt,value
2022-10-02T00:02:07.140Z,11.99
2022-10-02T00:04:43.499Z,12.02
2022-10-02T00:07:19.017Z,12.03
2022-10-02T00:09:56.572Z,12.05
2022-10-02T00:12:31.347Z,12.07
2022-10-02T00:15:04.805Z,12.07
2022-10-02T00:17:43.417Z,12.04
2022-10-02T00:20:18.388Z,12.02
2022-10-02T00:22:54.755Z,12.02
2022-10-02T00:25:34.801Z,12.03
2022-10-02T00:28:28.006Z,12.02
2022-10-02T00:31:18.374Z,12.01
2022-10-02T00:34:01.878Z,12.00
2022-10-02T00:36:47.613Z,12.01
2022-10-02T00:39:32.506Z,12.01
2022-10-02T00:42:38.523Z,12.02
2022-10-02T00:45:35.226Z,12.03
2022-10-02T00:48:19.090Z,12.06
2022-10-02T00:51:00.472Z,12.08
2022-10-02T00:53:43.705Z,12.08
2022-10-02T00:56:29.263Z,12.06
2022-10-02T00:59:17.004Z,12.06
2022-10-02T01:01:53.817Z,12.09
2022-10-02T01:04:31.149Z,12.07
2022-10-02T01:07:04.373Z,12.06
2022-10-02T01:09:37.581Z,12.06
2022-10-02T01:12:09.489Z,12.05
2022-10-02T01:14:42.660Z,12.05
2022-10-02T01:17:25.829Z,12.06
2022-10-02T01:19:57.959Z,12.06
2022-10-02T01:22:39.824Z,12.07
2022-10-02T01:25:11.965Z,12.06
2022-10-02T01:27:44.447Z,12.04
2022-10-02T01:30:19.570Z,12.02
2022-10-02T01:32:54.600Z,12.04
2022-10-02T01:35:31.681Z,12.05
2022-10-02T01:38:08.923Z,12.05
2022-10-02T01:40:42.292Z,12.06
2022-10-02T01:43:18.526Z,12.06
2022-10-02T01:46:03.432Z,12.07
2022-10-02T01:48:45.383Z,12.08
2022-10-02T01:51:40.692Z,12.09
2022-10-02T01:54:22.638Z,12.06
2022-10-02T01:57:03.528Z,12.04
2022-10-02T01:59:48.352Z,12.05
2022-10-02T02:02:31.302Z,12.09
2022-10-02T02:05:09.995Z,12.11
2022-10-02T02:07:48.821Z,12.11
2022-10-02T02:10:27.810Z,12.13
2022-10-02T02:13:05.145Z,12.14
2022-10-02T02:15:42.059Z,12.13
2022-10-02T02:18:22.371Z,12.15
2022-10-02T02:20:59.200Z,12.15
2022-10-02T02:23:35.232Z,12.15
2022-10-02T02:26:12.466Z,12.13
2022-10-02T02:28:49.952Z,12.11
2022-10-02T02:31:26.613Z,12.10
2022-10-02T02:34:02.542Z,12.13
2022-10-02T02:36:38.847Z,12.13
2022-10-02T02:39:14.801Z,12.14
2022-10-02T02:41:50.252Z,12.13
2022-10-02T02:44:27.807Z,12.12
2022-10-02T02:47:07.140Z,12.13
2022-10-02T02:49:46.567Z,12.13
2022-10-02T02:52:22.490Z,12.14
2022-10-02T02:54:58.528Z,12.15
2022-10-02T02:57:35.356Z,12.15
2022-10-02T03:00:09.450Z,12.15
2022-10-02T03:02:41.284Z,12.13
2022-10-02T03:05:18.111Z,12.13
2022-10-02T03:07:55.049Z,12.15
2022-10-02T03:10:37.883Z,12.14
2022-10-02T03:13:24.363Z,12.13
2022-10-02T03:16:11.938Z,12.13
2022-10-02T03:18:59.403Z,12.13
2022-10-02T03:21:39.270Z,12.14
2022-10-02T03:24:18.293Z,12.15
2022-10-02T03:26:56.923Z,12.16
2022-10-02T03:29:34.101Z,12.14
2022-10-02T03:32:08.531Z,12.14
2022-10-02T03:34:41.378Z,12.13
2022-10-02T03:37:13.318Z,12.08
2022-10-02T03:39:46.280Z,12.08
2022-10-02T03:42:20.755Z,12.11
2022-10-02T03:44:52.550Z,12.11
2022-10-02T03:47:24.554Z,12.09
2022-10-02T03:49:56.386Z,12.07
2022-10-02T03:52:29.795Z,12.06
2022-10-02T03:55:06.685Z,12.06
2022-10-02T03:57:38.528Z,12.07
2022-10-02T04:00:20.409Z,12.08
2022-10-02T04:02:57.992Z,12.10
2022-10-02T04:05:35.427Z,12.11
2022-10-02T04:08:18.101Z,12.11
2022-10-02T04:10:55.431Z,12.11
2022-10-02T04:13:35.210Z,12.11
2022-10-02T04:16:12.914Z,12.09
2022-10-02T04:18:56.222Z,12.06
2022-10-02T04:21:41.789Z,12.06
2022-10-02T04:24:22.099Z,12.09
2022-10-02T04:27:04.654Z,12.09
2022-10-02T04:29:41.228Z,12.10
2022-10-02T04:32:17.824Z,12.12
2022-10-02T04:34:49.720Z,12.12
2022-10-02T04:37:38.856Z,12.13
2022-10-02T04:40:24.284Z,12.14
2022-10-02T04:43:12.131Z,12.14
2022-10-02T04:46:05.188Z,12.16
2022-10-02T04:48:55.354Z,12.16
2022-10-02T04:51:41.450Z,12.17
2022-10-02T04:54:30.761Z,12.17
2022-10-02T04:57:20.820Z,12.14
2022-10-02T05:00:03.606Z,12.15
2022-10-02T05:02:44.560Z,12.17
2022-10-02T05:05:32.044Z,12.18
2022-10-02T05:08:23.887Z,12.17
2022-10-02T05:11:12.391Z,12.17
2022-10-02T05:14:02.252Z,12.19
2022-10-02T05:16:51.720Z,12.18
2022-10-02T05:19:43.263Z,12.17
2022-10-02T05:22:41.869Z,12.17
2022-10-02T05:25:36.473Z,12.16
2022-10-02T05:28:29.587Z,12.16
2022-10-02T05:31:14.987Z,12.15
2022-10-02T05:34:03.566Z,12.12
2022-10-02T05:36:50.895Z,12.12
2022-10-02T05:39:28.300Z,12.15
2022-10-02T05:42:07.437Z,12.15
2022-10-02T05:44:43.327Z,12.15
2022-10-02T05:47:20.526Z,12.16
2022-10-02T05:49:57.018Z,12.15
2022-10-02T05:52:37.206Z,12.14
2022-10-02T05:55:19.929Z,12.14
2022-10-02T05:57:56.949Z,12.13
2022-10-02T06:00:37.233Z,12.14
2022-10-02T06:03:18.706Z,12.15
2022-10-02T06:05:57.725Z,12.13
2022-10-02T06:08:35.953Z,12.12
2022-10-02T06:11:12.889Z,12.11
2022-10-02T06:13:50.690Z,12.14
2022-10-02T06:16:25.375Z,12.15
2022-10-02T06:18:59.712Z,12.16
2022-10-02T06:21:39.563Z,12.15
2022-10-02T06:24:19.740Z,12.16
2022-10-02T06:27:00.812Z,12.17
2022-10-02T06:29:41.254Z,12.18
2022-10-02T06:32:20.252Z,12.18
2022-10-02T06:34:53.196Z,12.17
2022-10-02T06:37:36.795Z,12.17
2022-10-02T06:40:42.846Z,12.18
2022-10-02T06:43:27.315Z,12.21
2022-10-02T06:46:10.611Z,12.21
2022-10-02T06:48:50.281Z,12.21
2022-10-02T06:51:29.412Z,12.22
2022-10-02T06:54:19.298Z,12.26
2022-10-02T06:57:08.310Z,12.32
2022-10-02T06:59:57.237Z,12.33
2022-10-02T07:02:41.368Z,12.32
2022-10-02T07:05:38.458Z,12.34
2022-10-02T07:08:17.438Z,12.39
2022-10-02T07:10:59.671Z,12.45
2022-10-02T07:13:46.322Z,12.47
2022-10-02T07:16:32.071Z,12.52
2022-10-02T07:19:36.808Z,12.55
2022-10-02T07:22:43.829Z,12.60
2022-10-02T07:25:37.697Z,12.63
2022-10-02T07:28:19.210Z,12.62
2022-10-02T07:31:01.189Z,12.60
2022-10-02T07:33:53.204Z,12.59
2022-10-02T07:36:39.168Z,12.62
2022-10-02T07:39:22.833Z,12.62
2022-10-02T07:42:09.695Z,12.62
2022-10-02T07:45:03.018Z,12.64
2022-10-02T07:47:56.795Z,12.67
2022-10-02T07:50:36.527Z,12.70
2022-10-02T07:53:18.181Z,12.73
2022-10-02T07:55:55.919Z,12.73
2022-10-02T07:58:35.033Z,12.77
2022-10-02T08:01:12.795Z,12.80
2022-10-02T08:03:50.168Z,12.86
2022-10-02T08:06:22.139Z,12.87
2022-10-02T08:08:57.988Z,12.88
2022-10-02T08:11:34.179Z,12.89
2022-10-02T08:14:20.428Z,12.90
2022-10-02T08:16:55.575Z,12.91
2022-10-02T08:19:34.874Z,12.95
2022-10-02T08:22:16.388Z,13.00
2022-10-02T08:24:55.016Z,13.06
2022-10-02T08:27:30.391Z,13.11
2022-10-02T08:30:06.734Z,13.14
2022-10-02T08:32:39.729Z,13.15
2022-10-02T08:35:15.411Z,13.13
2022-10-02T08:38:02.685Z,13.11
2022-10-02T08:41:16.118Z,13.11
2022-10-02T08:44:41.505Z,13.08
2022-10-02T08:47:49.840Z,13.03
2022-10-02T08:50:39.092Z,13.02
2022-10-02T08:53:46.528Z,13.00
2022-10-02T08:56:31.500Z,13.05
2022-10-02T08:59:35.500Z,13.14
2022-10-02T09:02:57.947Z,13.22
2022-10-02T09:06:09.396Z,13.32
2022-10-02T09:09:34.115Z,13.34
2022-10-02T09:12:31.903Z,13.36
2022-10-02T09:15:17.731Z,13.43
2022-10-02T09:18:00.688Z,13.63
2022-10-02T09:20:49.195Z,13.83
2022-10-02T09:24:04.437Z,13.98
2022-10-02T09:26:53.262Z,14.04
2022-10-02T09:30:14.296Z,14.08
2022-10-02T09:33:28.161Z,14.05
2022-10-02T09:36:25.032Z,14.00
2022-10-02T09:39:19.811Z,13.96
2022-10-02T09:42:27.454Z,13.97
2022-10-02T09:45:32.513Z,14.00
2022-10-02T09:48:30.363Z,14.03
2022-10-02T09:51:41.958Z,14.04
2022-10-02T09:55:00.984Z,14.00
2022-10-02T09:58:12.778Z,14.07
2022-10-02T10:01:08.005Z,14.31
2022-10-02T10:04:08.546Z,14.63
2022-10-02T10:07:06.983Z,14.82
2022-10-02T10:10:27.943Z,14.90
2022-10-02T10:13:53.442Z,14.88
2022-10-02T10:17:09.286Z,14.79
2022-10-02T10:20:22.997Z,14.67
2022-10-02T10:23:26.254Z,14.56
2022-10-02T10:26:37.161Z,14.52
2022-10-02T10:29:43.333Z,14.45
2022-10-02T10:33:01.464Z,14.47
2022-10-02T10:36:36.383Z,14.54
2022-10-02T10:39:33.232Z,14.55
2022-10-02T10:42:24.272Z,14.52
2022-10-02T10:45:18.234Z,14.50
2022-10-02T10:48:07.801Z,14.55
2022-10-02T10:50:50.228Z,14.57
2022-10-02T10:53:43.549Z,14.57
2022-10-02T10:56:42.803Z,14.51
2022-10-02T11:00:00.209Z,14.48
2022-10-02T11:02:54.935Z,14.47
2022-10-02T11:06:25.362Z,14.47
2022-10-02T11:09:34.733Z,14.44
2022-10-02T11:12:28.377Z,14.42
2022-10-02T11:15:19.921Z,14.40
2022-10-02T11:18:07.975Z,14.42
2022-10-02T11:20:57.455Z,14.46
2022-10-02T11:23:53.537Z,14.53
2022-10-02T11:26:46.123Z,14.57
2022-10-02T11:29:43.795Z,14.61
2022-10-02T11:32:46.869Z,14.62
2022-10-02T11:35:42.380Z,14.61
2022-10-02T11:38:32.680Z,14.59
2022-10-02T11:41:22.859Z,14.55
2022-10-02T11:44:15.648Z,14.46
2022-10-02T11:47:18.157Z,14.32
2022-10-02T11:50:29.879Z,14.30
2022-10-02T11:53:18.770Z,14.44
2022-10-02T11:56:03.458Z,14.60
2022-10-02T11:58:49.914Z,14.69
2022-10-02T12:01:28.472Z,14.68
2022-10-02T12:04:11.972Z,14.66
2022-10-02T12:07:05.857Z,14.60
2022-10-02T12:09:54.784Z,14.53
2022-10-02T12:12:40.112Z,14.45
2022-10-02T12:15:24.572Z,14.37
2022-10-02T12:18:11.190Z,14.31
2022-10-02T12:21:22.810Z,14.29
2022-10-02T12:24:20.540Z,14.35
2022-10-02T12:27:04.137Z,14.38
2022-10-02T12:29:47.077Z,14.43
2022-10-02T12:32:29.498Z,14.47
2022-10-02T12:35:18.006Z,14.49
2022-10-02T12:37:57.717Z,14.48
2022-10-02T12:40:39.037Z,14.45
2022-10-02T12:43:30.833Z,14.46
2022-10-02T12:46:40.113Z,14.48
2022-10-02T12:49:27.855Z,14.50
2022-10-02T12:52:28.616Z,14.49
2022-10-02T12:55:36.317Z,14.49
2022-10-02T12:58:18.402Z,14.51
2022-10-02T13:01:21.093Z,14.59
2022-10-02T13:04:57.599Z,14.67
2022-10-02T13:07:58.365Z,14.67
2022-10-02T13:10:36.822Z,14.66
2022-10-02T13:13:31.830Z,14.64
2022-10-02T13:16:13.314Z,14.58
2022-10-02T13:19:00.788Z,14.53
2022-10-02T13:21:43.045Z,14.54
2022-10-02T13:24:37.278Z,14.65
2022-10-02T13:27:22.451Z,14.69
2022-10-02T13:30:07.485Z,14.74
2022-10-02T13:32:45.246Z,14.78
2022-10-02T13:35:39.820Z,14.81
2022-10-02T13:38:25.583Z,14.80
2022-10-02T13:41:07.811Z,14.80
2022-10-02T13:43:58.718Z,14.81
2022-10-02T13:46:47.410Z,14.85
2022-10-02T13:49:28.944Z,14.88
2022-10-02T13:52:11.774Z,14.92
2022-10-02T13:55:08.995Z,14.93
2022-10-02T13:57:56.717Z,14.94
2022-10-02T14:01:02.005Z,14.95
2022-10-02T14:03:55.720Z,14.93
2022-10-02T14:06:32.891Z,14.94
2022-10-02T14:09:18.718Z,14.98
2022-10-02T14:12:13.076Z,14.99
2022-10-02T14:15:00.728Z,14.96
2022-10-02T14:17:45.476Z,14.90
2022-10-02T14:20:33.015Z,14.81
2022-10-02T14:23:22.603Z,14.74
2022-10-02T14:26:07.398Z,14.64
2022-10-02T14:28:59.406Z,14.57
2022-10-02T14:32:01.680Z,14.52
2022-10-02T14:34:49.547Z,14.55
2022-10-02T14:37:38.766Z,14.61
2022-10-02T14:40:16.631Z,14.62
2022-10-02T14:43:04.050Z,14.60
2022-10-02T14:46:17.719Z,14.60
2022-10-02T14:49:19.196Z,14.57
2022-10-02T14:52:06.157Z,14.51
2022-10-02T14:54:53.237Z,14.46
2022-10-02T14:57:47.477Z,14.40
2022-10-02T15:00:22.179Z,14.36
2022-10-02T15:03:11.144Z,14.32
2022-10-02T15:05:57.193Z,14.26
2022-10-02T15:08:33.060Z,14.22
2022-10-02T15:11:19.278Z,14.22
2022-10-02T15:13:56.846Z,14.19
2022-10-02T15:17:00.050Z,14.15
2022-10-02T15:19:40.983Z,14.10
2022-10-02T15:22:19.984Z,14.06
2022-10-02T15:24:58.511Z,14.03
2022-10-02T15:27:42.911Z,13.99
2022-10-02T15:30:21.798Z,13.95
2022-10-02T15:33:13.237Z,13.89
2022-10-02T15:36:07.368Z,13.85
2022-10-02T15:39:04.990Z,13.85
2022-10-02T15:41:44.953Z,13.81
2022-10-02T15:44:37.721Z,13.77
2022-10-02T15:47:22.864Z,13.74
2022-10-02T15:50:11.081Z,13.71
2022-10-02T15:52:55.274Z,13.68
2022-10-02T15:55:38.904Z,13.64
2022-10-02T15:58:31.822Z,13.59
2022-10-02T16:01:24.421Z,13.54
2022-10-02T16:04:02.303Z,13.56
2022-10-02T16:06:53.725Z,13.54
2022-10-02T16:09:44.259Z,13.51
2022-10-02T16:12:36.762Z,13.47
2022-10-02T16:15:19.146Z,13.43
2022-10-02T16:18:16.191Z,13.39
2022-10-02T16:20:58.601Z,13.33
2022-10-02T16:23:55.518Z,13.25
2022-10-02T16:26:42.046Z,13.20
2022-10-02T16:29:29.757Z,13.18
2022-10-02T16:32:15.160Z,13.14
2022-10-02T16:35:11.304Z,13.13
2022-10-02T16:37:47.740Z,13.08
2022-10-02T16:40:34.340Z,13.03
2022-10-02T16:43:40.603Z,12.98
2022-10-02T16:46:16.984Z,12.90
2022-10-02T16:48:57.194Z,12.84
2022-10-02T16:51:36.726Z,12.83
2022-10-02T16:54:19.169Z,12.80
2022-10-02T16:56:57.964Z,12.78
2022-10-02T16:59:34.203Z,12.76
2022-10-02T17:02:18.130Z,12.74
2022-10-02T17:05:03.772Z,12.73
2022-10-02T17:07:53.047Z,12.71
2022-10-02T17:10:34.726Z,12.68
2022-10-02T17:13:20.135Z,12.65
2022-10-02T17:15:59.216Z,12.70
2022-10-02T17:18:44.558Z,12.71
2022-10-02T17:21:22.239Z,12.69
2022-10-02T17:24:14.380Z,12.67
2022-10-02T17:26:51.264Z,12.66
2022-10-02T17:29:28.713Z,12.63
2022-10-02T17:32:01.636Z,12.59
2022-10-02T17:34:45.768Z,12.57
2022-10-02T17:37:47.997Z,12.58
2022-10-02T17:40:26.494Z,12.63
2022-10-02T17:43:06.526Z,12.63
2022-10-02T17:45:45.655Z,12.63
2022-10-02T17:48:41.784Z,12.60
2022-10-02T17:51:51.743Z,12.55
2022-10-02T17:55:07.621Z,12.50
2022-10-02T17:57:52.062Z,12.44
2022-10-02T18:00:26.374Z,12.42
2022-10-02T18:03:32.019Z,12.45
2022-10-02T18:06:17.437Z,12.45
2022-10-02T18:09:24.375Z,12.42
2022-10-02T18:12:13.171Z,12.36
2022-10-02T18:15:17.073Z,12.29
2022-10-02T18:18:02.099Z,12.22
2022-10-02T18:20:44.627Z,12.19
2022-10-02T18:23:33.317Z,12.20
2022-10-02T18:26:24.584Z,12.18
2022-10-02T18:29:18.253Z,12.18
2022-10-02T18:32:12.401Z,12.15
2022-10-02T18:34:59.696Z,12.12
2022-10-02T18:37:50.287Z,12.08
2022-10-02T18:40:28.556Z,12.04
2022-10-02T18:43:18.623Z,11.99
2022-10-02T18:46:01.101Z,11.96
2022-10-02T18:48:51.023Z,11.96
2022-10-02T18:51:54.377Z,11.93
2022-10-02T18:54:34.579Z,11.90
2022-10-02T18:57:25.607Z,11.87
2022-10-02T19:00:06.682Z,11.83
2022-10-02T19:02:54.659Z,11.77
2022-10-02T19:05:35.542Z,11.72
2022-10-02T19:08:18.491Z,11.69
2022-10-02T19:10:50.292Z,11.70
2022-10-02T19:13:28.888Z,11.68
2022-10-02T19:16:17.319Z,11.65
2022-10-02T19:18:49.697Z,11.62
2022-10-02T19:21:25.179Z,11.58
2022-10-02T19:24:05.809Z,11.55
2022-10-02T19:26:46.133Z,11.51
2022-10-02T19:29:29.604Z,11.49
2022-10-02T19:32:10.435Z,11.51
2022-10-02T19:34:43.761Z,11.50
2022-10-02T19:37:19.414Z,11.50
2022-10-02T19:39:54.895Z,11.48
2022-10-02T19:42:31.057Z,11.43
2022-10-02T19:45:06.728Z,11.41
2022-10-02T19:47:44.941Z,11.38
2022-10-02T19:50:24.336Z,11.38
2022-10-02T19:52:59.768Z,11.41
2022-10-02T19:55:35.713Z,11.40
2022-10-02T19:58:16.649Z,11.40
2022-10-02T20:00:50.792Z,11.42
2022-10-02T20:03:24.313Z,11.41
2022-10-02T20:06:01.039Z,11.40
2022-10-02T20:08:38.389Z,11.37
2022-10-02T20:11:17.654Z,11.34
2022-10-02T20:13:54.510Z,11.32
2022-10-02T20:16:47.100Z,11.35
2022-10-02T20:19:22.352Z,11.34
2022-10-02T20:21:56.915Z,11.33
2022-10-02T20:24:37.415Z,11.33
2022-10-02T20:27:13.711Z,11.31
2022-10-02T20:29:51.002Z,11.28
2022-10-02T20:32:27.069Z,11.25
2022-10-02T20:35:04.444Z,11.26
2022-10-02T20:37:37.085Z,11.32
2022-10-02T20:40:14.576Z,11.32
2022-10-02T20:42:55.068Z,11.33
2022-10-02T20:45:34.252Z,11.34
2022-10-02T20:49:03.567Z,11.36
2022-10-02T20:52:08.762Z,11.34
2022-10-02T20:54:54.332Z,11.33
2022-10-02T20:58:01.446Z,11.33
2022-10-02T21:00:44.323Z,11.36
2022-10-02T21:03:42.991Z,11.34
2022-10-02T21:06:51.804Z,11.32
2022-10-02T21:09:47.541Z,11.30
2022-10-02T21:12:55.707Z,11.27
2022-10-02T21:16:09.639Z,11.22
2022-10-02T21:19:20.084Z,11.19
2022-10-02T21:22:16.816Z,11.17
2022-10-02T21:25:32.334Z,11.17
2022-10-02T21:28:25.819Z,11.15
2022-10-02T21:31:12.722Z,11.13
2022-10-02T21:33:57.344Z,11.12
2022-10-02T21:36:37.621Z,11.09
2022-10-02T21:39:39.799Z,11.05
2022-10-02T21:42:47.636Z,11.02
2022-10-02T21:45:58.710Z,11.01
2022-10-02T21:49:04.965Z,11.02
2022-10-02T21:52:14.291Z,11.00
2022-10-02T21:55:21.627Z,11.00
2022-10-02T21:58:45.816Z,11.01
2022-10-02T22:02:08.390Z,11.00
2022-10-02T22:05:06.859Z,10.98
2022-10-02T22:07:48.844Z,10.97
2022-10-02T22:10:26.717Z,10.94
2022-10-02T22:13:15.479Z,10.95
2022-10-02T22:16:04.342Z,10.92
2022-10-02T22:18:46.515Z,10.89
2022-10-02T22:21:44.599Z,10.86
2022-10-02T22:24:29.428Z,10.86
2022-10-02T22:27:44.214Z,10.85
2022-10-02T22:30:27.049Z,10.83
2022-10-02T22:33:17.852Z,10.78
2022-10-02T22:36:14.256Z,10.74
2022-10-02T22:38:52.308Z,10.73
2022-10-02T22:41:31.034Z,10.74
2022-10-02T22:44:08.654Z,10.72
2022-10-02T22:46:50.385Z,10.71
2022-10-02T22:49:27.508Z,10.71
2022-10-02T22:52:09.036Z,10.72
2022-10-02T22:54:49.779Z,10.72
2022-10-02T22:57:32.059Z,10.72
2022-10-02T23:00:12.903Z,10.73
2022-10-02T23:02:51.167Z,10.72
2022-10-02T23:05:29.261Z,10.71
2022-10-02T23:08:08.365Z,10.74
2022-10-02T23:10:46.760Z,10.73
2022-10-02T23:13:26.567Z,10.72
2022-10-02T23:16:04.888Z,10.72
2022-10-02T23:18:43.933Z,10.72
2022-10-02T23:21:29.987Z,10.73
2022-10-02T23:24:08.177Z,10.73
2022-10-02T23:26:48.095Z,10.70
2022-10-02T23:29:31.976Z,10.70
2022-10-02T23:32:14.427Z,10.70
2022-10-02T23:34:59.153Z,10.73
2022-10-02T23:37:43.264Z,10.75
2022-10-02T23:40:44.829Z,10.77
2022-10-02T23:43:25.259Z,10.78
2022-10-02T23:46:02.517Z,10.78
2022-10-02T23:48:38.110Z,10.79
2022-10-02T23:51:21.530Z,10.82
2022-10-02T23:54:15.424Z,10.84
2022-10-02T23:57:09.809Z,10.83
2022-10-02T23:59:59.862Z,10.82
